Time;durP1;ratioP1;P1;durP2;ratioP2;P2;SDS_P1;SDS_P2;PMS_P1;PMS_P2;Temp;Humidity;BMP_temperature;BMP_pressure;BME280_temperature;BME280_humidity;BME280_pressure;Samples;Min_cycle;Max_cycle;Signal;HPM_P1;HPM_P2
2021/10/20 00:00:30;;;;;;;7.33;5.40;;;;;;;0.71;60.30;101735.47;5014341;28;20038;-65
2021/10/20 00:02:57;;;;;;;7.10;5.57;;;;;;;0.84;59.44;101754.91;5013361;28;20141;-63
2021/10/20 00:05:22;;;;;;;6.27;5.10;;;;;;;0.33;59.43;101660.50;5013516;28;20046;-63
2021/10/20 00:07:49;;;;;;;7.40;4.97;;;;;;;0.82;59.44;101746.25;5013502;28;20311;-66
2021/10/20 00:10:17;;;;;;;7.37;5.17;;;;;;;0.82;59.10;101730.53;5012643;28;20033;-64
2021/10/20 00:12:44;;;;;;;7.72;5.50;;;;;;;0.82;59.67;101727.91;5011981;28;20755;-64
2021/10/20 00:15:12;;;;;;;8.97;5.10;;;;;;;0.81;59.53;101723.59;5012199;28;20405;-63
2021/10/20 00:17:38;;;;;;;10.20;4.95;;;;;;;0.83;59.72;101718.25;5011960;28;20296;-63
2021/10/20 00:20:08;;;;;;;8.97;5.37;;;;;;;0.81;59.23;101705.22;5011573;28;20038;-64
2021/10/20 00:22:35;;;;;;;11.27;5.13;;;;;;;0.85;59.55;101698.91;5011410;28;20038;-66
2021/10/20 00:25:01;;;;;;;6.77;4.30;;;;;;;0.93;59.14;101696.75;5010082;28;20728;-65
2021/10/20 00:27:27;;;;;;;9.97;4.43;;;;;;;0.97;58.79;101701.84;5011167;28;20260;-65
2021/10/20 00:29:54;;;;;;;8.90;4.27;;;;;;;0.91;58.51;101682.03;5012699;28;20092;-64
2021/10/20 00:32:19;;;;;;;8.80;4.07;;;;;;;0.98;58.04;101682.56;5015333;28;20688;-65
2021/10/20 00:34:44;;;;;;;10.70;4.53;;;;;;;0.92;57.89;101674.09;5015573;28;20276;-66
2021/10/20 00:37:10;;;;;;;7.97;4.27;;;;;;;1.01;58.28;101685.88;5015678;28;20034;-64
2021/10/20 00:39:35;;;;;;;5.70;4.17;;;;;;;0.97;58.17;101673.84;5015504;28;20030;-63
2021/10/20 00:42:01;;;;;;;5.63;3.60;;;;;;;1.01;58.13;101671.91;5015584;28;20048;-62
2021/10/20 00:44:26;;;;;;;7.60;3.77;;;;;;;1.06;58.26;101672.50;5015718;28;20026;-63
2021/10/20 00:46:51;;;;;;;13.73;4.43;;;;;;;0.96;57.89;101642.44;5015491;28;20045;-63
2021/10/20 00:49:17;;;;;;;7.90;4.13;;;;;;;1.12;57.96;101659.06;5015383;28;20034;-62
2021/10/20 00:51:43;;;;;;;11.90;5.43;;;;;;;1.15;57.43;101648.41;5015150;28;20116;-64
2021/10/20 00:54:08;;;;;;;9.03;5.37;;;;;;;1.10;57.66;101650.44;5015558;28;20061;-63
2021/10/20 00:56:34;;;;;;;9.63;5.43;;;;;;;1.12;57.71;101638.09;5015174;28;20468;-63
2021/10/20 00:59:00;;;;;;;10.37;4.77;;;;;;;1.06;57.46;101628.75;5014712;28;20060;-62
2021/10/20 01:01:25;;;;;;;6.60;4.33;;;;;;;1.05;58.20;101621.81;5014609;28;20472;-62
2021/10/20 01:03:51;;;;;;;7.80;4.13;;;;;;;0.95;57.81;101602.25;5014821;28;20038;-62
2021/10/20 01:06:17;;;;;;;6.47;4.23;;;;;;;1.03;58.58;101604.47;5015392;28;20038;-63
2021/10/20 01:08:43;;;;;;;9.13;4.73;;;;;;;0.99;58.53;101606.41;5014824;28;20045;-64
2021/10/20 01:11:09;;;;;;;9.27;4.10;;;;;;;0.94;58.56;101590.06;5015191;28;20276;-64
2021/10/20 01:13:34;;;;;;;8.60;5.70;;;;;;;1.01;58.87;101591.44;5014829;28;20260;-65
2021/10/20 01:16:01;;;;;;;14.33;6.03;;;;;;;0.59;59.44;101529.84;5014743;28;20034;-65
2021/10/20 01:18:27;;;;;;;5.87;4.13;;;;;;;0.99;59.91;101587.19;5014808;28;20041;-64
2021/10/20 01:20:59;;;;;;;8.63;4.57;;;;;;;1.00;59.59;101596.75;5015052;28;20276;-63
2021/10/20 01:23:26;;;;;;;8.90;4.20;;;;;;;0.53;59.60;101509.16;5015259;28;20272;-63
2021/10/20 01:25:51;;;;;;;12.23;4.93;;;;;;;0.96;60.29;101575.09;5014211;28;20378;-62
2021/10/20 01:28:17;;;;;;;8.70;5.10;;;;;;;0.96;59.67;101580.34;5014957;28;20361;-64
2021/10/20 01:30:43;;;;;;;10.80;4.33;;;;;;;0.88;60.12;101567.66;5014377;28;20030;-63
2021/10/20 01:33:09;;;;;;;9.83;5.87;;;;;;;0.89;60.54;101574.59;5014366;28;20076;-64
2021/10/20 01:35:34;;;;;;;10.17;5.67;;;;;;;0.78;60.78;101555.09;5014013;28;20485;-64
2021/10/20 01:38:01;;;;;;;9.13;6.03;;;;;;;0.80;60.93;101567.19;5012636;28;20289;-63
2021/10/20 01:40:27;;;;;;;8.30;5.37;;;;;;;0.78;61.60;101555.94;5014386;28;20033;-62
2021/10/20 01:42:52;;;;;;;8.10;5.60;;;;;;;0.73;61.83;101557.94;5014444;28;20359;-62
2021/10/20 01:45:18;;;;;;;8.03;5.50;;;;;;;0.66;62.28;101542.63;5012766;28;20485;-63
2021/10/20 01:47:43;;;;;;;10.37;6.10;;;;;;;0.70;62.32;101557.25;5015194;28;20088;-63
2021/10/20 01:50:12;;;;;;;12.47;6.67;;;;;;;0.72;62.45;101544.91;5014150;28;20049;-62
2021/10/20 01:52:37;;;;;;;8.20;6.68;;;;;;;0.63;62.86;101519.19;5012665;28;20048;-65
2021/10/20 01:55:14;;;;;;;14.37;6.97;;;;;;;0.59;63.22;101518.50;5014600;28;20448;-63
2021/10/20 01:57:41;;;;;;;11.27;5.70;;;;;;;0.57;63.33;101517.72;5013979;28;20041;-64
2021/10/20 02:00:07;;;;;;;9.50;5.83;;;;;;;0.73;63.61;101526.47;5013990;28;20355;-63
2021/10/20 02:02:33;;;;;;;11.23;6.50;;;;;;;0.72;63.59;101535.28;5013683;28;20284;-63
2021/10/20 02:04:58;;;;;;;12.33;7.43;;;;;;;0.70;63.62;101538.91;5013970;28;20814;-64
2021/10/20 02:07:23;;;;;;;10.93;6.93;;;;;;;0.58;63.94;101529.94;5014051;28;20052;-64
2021/10/20 02:09:49;;;;;;;13.07;6.97;;;;;;;0.52;64.31;101512.72;5013674;28;20049;-64
2021/10/20 02:12:14;;;;;;;8.77;5.57;;;;;;;0.53;64.10;101518.81;5013346;28;20081;-62
2021/10/20 02:14:40;;;;;;;8.73;5.10;;;;;;;0.65;64.10;101528.66;5013758;28;20036;-66
2021/10/20 02:17:06;;;;;;;11.20;6.13;;;;;;;0.67;64.01;101518.94;5013318;28;20037;-66
2021/10/20 02:19:31;;;;;;;12.70;6.57;;;;;;;0.68;63.52;101523.25;5013166;28;20313;-62
2021/10/20 02:21:58;;;;;;;13.33;5.70;;;;;;;0.20;64.07;101441.03;5013627;28;20037;-63
2021/10/20 02:24:23;;;;;;;7.97;6.00;;;;;;;0.68;63.93;101511.94;5013372;28;20486;-63
2021/10/20 02:26:49;;;;;;;9.70;5.60;;;;;;;0.63;64.17;101514.81;5013368;28;20314;-67
2021/10/20 02:29:14;;;;;;;7.07;4.77;;;;;;;0.64;64.34;101497.28;5013685;28;20068;-63
2021/10/20 02:31:46;;;;;;;8.63;5.13;;;;;;;0.64;64.24;101503.38;5013387;28;20029;-64
2021/10/20 02:34:15;;;;;;;7.83;4.83;;;;;;;0.57;64.68;101483.66;5012915;28;20052;-62
2021/10/20 02:36:41;;;;;;;7.33;5.77;;;;;;;0.60;64.21;101486.13;5013007;28;20269;-64
2021/10/20 02:39:07;;;;;;;8.07;5.07;;;;;;;0.54;64.48;101470.69;5013135;28;20301;-63
2021/10/20 02:41:32;;;;;;;8.43;4.40;;;;;;;0.57;64.42;101478.41;5013064;28;20272;-63
2021/10/20 02:43:57;;;;;;;9.40;4.80;;;;;;;0.61;64.42;101483.44;5011460;28;20124;-63
2021/10/20 02:46:23;;;;;;;8.73;4.17;;;;;;;0.67;64.29;101477.00;5012881;28;20079;-63
2021/10/20 02:48:48;;;;;;;8.67;4.43;;;;;;;0.74;64.08;101467.88;5012716;28;20119;-64
2021/10/20 02:51:13;;;;;;;8.80;4.80;;;;;;;0.72;64.06;101461.03;5012585;28;20088;-62
2021/10/20 02:53:39;;;;;;;9.07;4.13;;;;;;;0.66;63.69;101441.22;5012202;28;20037;-64
2021/10/20 02:56:04;;;;;;;7.27;3.63;;;;;;;0.68;63.21;101444.63;5011432;28;20033;-62
2021/10/20 02:58:30;;;;;;;6.97;3.80;;;;;;;0.57;64.01;101437.31;5012728;28;20038;-64
2021/10/20 03:00:55;;;;;;;8.50;4.73;;;;;;;0.67;63.86;101455.19;5012434;28;20057;-63
2021/10/20 03:03:20;;;;;;;9.33;4.70;;;;;;;0.43;64.26;101413.63;5011664;28;20050;-62
2021/10/20 03:05:46;;;;;;;9.67;4.90;;;;;;;0.65;63.91;101438.69;5013197;28;20076;-67
2021/10/20 03:08:11;;;;;;;6.60;4.50;;;;;;;0.70;63.88;101437.50;5012759;28;20427;-67
2021/10/20 03:10:38;;;;;;;4.63;3.47;;;;;;;0.74;63.80;101430.31;5013020;28;20046;-64
2021/10/20 03:13:03;;;;;;;7.63;4.03;;;;;;;0.69;63.59;101425.34;5012544;28;20544;-64
2021/10/20 03:15:28;;;;;;;5.40;4.03;;;;;;;0.63;63.93;101414.34;5012228;28;20304;-63
2021/10/20 03:17:54;;;;;;;8.90;3.87;;;;;;;0.65;64.22;101417.72;5012662;28;20409;-67
2021/10/20 03:20:19;;;;;;;7.53;4.73;;;;;;;0.57;63.78;101399.78;5012340;28;20136;-63
2021/10/20 03:22:46;;;;;;;4.70;3.40;;;;;;;0.64;64.01;101395.06;5012309;28;20036;-63
2021/10/20 03:25:12;;;;;;;6.10;3.10;;;;;;;0.47;63.80;101352.25;5012452;28;20042;-65
2021/10/20 03:27:46;;;;;;;9.93;4.63;;;;;;;0.63;64.31;101378.50;5012265;28;20273;-64
2021/10/20 03:30:14;;;;;;;8.77;3.60;;;;;;;0.56;64.57;101377.09;5010757;28;20330;-64
2021/10/20 03:32:39;;;;;;;6.17;3.17;;;;;;;0.57;64.20;101373.56;5011923;28;20268;-64
2021/10/20 03:35:06;;;;;;;7.07;4.03;;;;;;;0.50;64.87;101366.97;5012036;28;20275;-63
2021/10/20 03:37:32;;;;;;;5.50;3.67;;;;;;;0.58;65.03;101367.41;5011515;28;20065;-64
2021/10/20 03:39:57;;;;;;;9.23;4.60;;;;;;;0.53;64.85;101353.69;5011631;28;20301;-64
2021/10/20 03:42:23;;;;;;;7.00;4.07;;;;;;;0.55;64.40;101351.84;5012140;28;20037;-64
2021/10/20 03:44:50;;;;;;;7.00;2.90;;;;;;;0.51;64.50;101342.44;5011819;28;20069;-63
2021/10/20 03:47:16;;;;;;;5.33;3.10;;;;;;;0.27;64.28;101300.94;5011790;28;20037;-64
2021/10/20 03:49:41;;;;;;;8.40;3.07;;;;;;;0.47;64.37;101336.53;5011924;28;20637;-63
2021/10/20 03:52:07;;;;;;;7.60;3.50;;;;;;;0.41;64.67;101310.69;5012050;28;20038;-63
2021/10/20 03:54:32;;;;;;;7.50;3.30;;;;;;;0.34;64.10;101283.13;5013470;28;20508;-63
2021/10/20 03:56:58;;;;;;;4.17;2.70;;;;;;;0.57;63.58;101301.00;5012151;28;20041;-64
2021/10/20 03:59:23;;;;;;;4.60;2.60;;;;;;;0.60;63.67;101307.91;5011773;28;20033;-65
2021/10/20 04:01:48;;;;;;;5.60;2.60;;;;;;;0.56;63.57;101301.09;5011622;28;20049;-63
2021/10/20 04:04:14;;;;;;;6.03;2.63;;;;;;;0.59;63.34;101293.09;5012073;28;20040;-67
2021/10/20 04:06:39;;;;;;;4.40;3.00;;;;;;;0.65;63.53;101274.41;5015933;28;20397;-68
2021/10/20 04:09:05;;;;;;;10.17;4.00;;;;;;;0.71;63.10;101281.06;5014882;28;20077;-69
2021/10/20 04:11:31;;;;;;;5.90;2.47;;;;;;;0.68;63.73;101266.34;5016364;28;20065;-70
2021/10/20 04:13:56;;;;;;;10.57;3.50;;;;;;;0.56;63.79;101246.91;5015425;28;20383;-70
2021/10/20 04:16:21;;;;;;;9.57;2.87;;;;;;;0.63;63.36;101264.94;5015727;28;20052;-70
2021/10/20 04:18:47;;;;;;;5.53;2.47;;;;;;;0.62;63.95;101261.47;5015563;28;20353;-66
2021/10/20 04:21:12;;;;;;;5.73;2.67;;;;;;;0.58;63.75;101254.72;5015495;28;20038;-65
2021/10/20 04:23:37;;;;;;;3.63;3.27;;;;;;;0.49;63.92;101234.25;5015984;28;20042;-68
2021/10/20 04:26:03;;;;;;;5.20;3.03;;;;;;;0.45;63.95;101224.88;5016429;28;20041;-69
2021/10/20 04:28:28;;;;;;;4.23;2.43;;;;;;;0.31;64.27;101204.69;5016872;28;20061;-71
2021/10/20 04:30:54;;;;;;;6.33;2.77;;;;;;;0.55;63.94;101224.25;5016957;28;20548;-71
2021/10/20 04:33:20;;;;;;;6.87;2.50;;;;;;;0.57;63.60;101221.53;5016168;28;20068;-69
2021/10/20 04:35:46;;;;;;;7.23;3.77;;;;;;;0.62;62.94;101240.50;5017256;28;20276;-69
2021/10/20 04:38:11;;;;;;;8.83;2.13;;;;;;;0.64;63.21;101230.78;5015973;28;20308;-69
2021/10/20 04:40:37;;;;;;;6.20;2.97;;;;;;;0.68;63.00;101216.56;5016396;28;20121;-68
2021/10/20 04:43:02;;;;;;;3.37;2.57;;;;;;;0.74;62.97;101191.75;5016219;28;20037;-71
2021/10/20 04:45:28;;;;;;;4.13;2.60;;;;;;;0.65;61.83;101161.69;5016136;28;20054;-68
2021/10/20 04:47:53;;;;;;;3.20;2.40;;;;;;;0.90;61.88;101177.66;5016088;28;20467;-72
2021/10/20 04:50:19;;;;;;;4.17;2.70;;;;;;;0.97;61.44;101172.06;5015223;28;20421;-71
2021/10/20 04:52:45;;;;;;;2.97;2.50;;;;;;;0.91;61.51;101168.88;5017261;28;20030;-70
2021/10/20 04:55:13;;;;;;;5.20;2.40;;;;;;;0.69;61.25;101121.25;5016821;28;20256;-72
2021/10/20 04:57:38;;;;;;;3.00;2.20;;;;;;;1.03;61.35;101166.44;5015708;28;20057;-69
2021/10/20 05:00:05;;;;;;;2.77;2.20;;;;;;;0.99;61.50;101134.31;5015289;28;20481;-70
2021/10/20 05:02:36;;;;;;;3.87;2.40;;;;;;;1.05;61.23;101133.94;5013479;28;20053;-67
2021/10/20 05:05:03;;;;;;;6.73;2.90;;;;;;;0.96;61.21;101104.81;5015225;28;20281;-67
2021/10/20 05:07:29;;;;;;;6.80;3.57;;;;;;;1.03;61.21;101108.72;5014015;28;20319;-68
2021/10/20 05:09:54;;;;;;;8.83;2.60;;;;;;;0.97;61.78;101096.00;5015159;28;20335;-68
2021/10/20 05:12:20;;;;;;;6.47;2.23;;;;;;;0.99;61.90;101097.59;5013658;28;20034;-68
2021/10/20 05:14:45;;;;;;;7.87;2.33;;;;;;;0.82;61.75;101059.25;5014553;28;20044;-69
2021/10/20 05:17:11;;;;;;;3.93;2.17;;;;;;;1.00;61.86;101078.28;5013088;28;20045;-67
2021/10/20 05:19:36;;;;;;;3.70;2.30;;;;;;;1.06;61.63;101083.16;5014942;28;20127;-67
2021/10/20 05:22:02;;;;;;;4.37;2.50;;;;;;;1.03;61.48;101072.84;5015084;28;20084;-67
2021/10/20 05:24:27;;;;;;;3.03;2.50;;;;;;;1.02;62.00;101055.44;5014891;28;20121;-68
2021/10/20 05:26:54;;;;;;;3.50;2.87;;;;;;;1.03;62.10;101051.88;5013144;28;20433;-68
2021/10/20 05:29:21;;;;;;;4.50;2.43;;;;;;;1.04;61.82;101043.06;5014536;28;20133;-69
2021/10/20 05:31:46;;;;;;;5.60;2.47;;;;;;;1.07;61.56;101042.88;5014684;28;20315;-67
2021/10/20 05:34:12;;;;;;;6.90;3.43;;;;;;;1.06;61.73;101024.63;5014389;28;20273;-68
2021/10/20 05:36:37;;;;;;;5.50;2.27;;;;;;;1.01;61.91;101000.47;5014241;28;20045;-70
2021/10/20 05:39:04;;;;;;;9.90;3.50;;;;;;;1.11;61.76;101023.38;5014046;28;20045;-71
2021/10/20 05:41:30;;;;;;;4.67;2.27;;;;;;;0.97;61.54;100993.72;5015118;28;20056;-65
2021/10/20 05:43:55;;;;;;;5.83;2.40;;;;;;;1.21;60.97;101023.66;5014296;28;20332;-67
2021/10/20 05:46:20;;;;;;;4.00;2.17;;;;;;;1.18;61.77;101013.38;5014285;28;20034;-67
2021/10/20 05:48:46;;;;;;;4.50;3.00;;;;;;;1.23;60.86;101006.06;5012801;28;20444;-72
2021/10/20 05:51:11;;;;;;;3.60;2.00;;;;;;;1.21;60.93;100982.53;5013901;28;20069;-67
2021/10/20 05:53:36;;;;;;;5.80;2.83;;;;;;;1.29;60.90;100989.91;5013562;28;20153;-68
2021/10/20 05:56:03;;;;;;;3.20;2.40;;;;;;;1.27;61.16;100970.81;5012186;28;20587;-68
2021/10/20 05:58:28;;;;;;;8.93;2.33;;;;;;;0.67;61.08;100874.09;5013050;28;20033;-68
2021/10/20 06:00:53;;;;;;;7.23;2.13;;;;;;;1.24;61.37;100966.59;5013310;28;20272;-68
2021/10/20 06:03:19;;;;;;;8.40;2.27;;;;;;;1.23;61.23;100943.09;5011821;28;20509;-67
2021/10/20 06:05:44;;;;;;;4.90;3.17;;;;;;;1.26;60.69;100953.38;5013557;28;20049;-71
2021/10/20 06:08:09;;;;;;;10.07;2.73;;;;;;;1.29;61.00;100950.56;5012568;28;20037;-69
2021/10/20 06:10:35;;;;;;;5.93;3.27;;;;;;;1.19;60.71;100920.63;5013674;28;20038;-72
2021/10/20 06:13:00;;;;;;;5.23;2.40;;;;;;;1.37;60.78;100936.94;5012654;28;20033;-67
2021/10/20 06:15:26;;;;;;;13.80;3.57;;;;;;;1.37;60.82;100929.06;5013779;28;20133;-67
2021/10/20 06:17:51;;;;;;;4.80;2.37;;;;;;;1.42;60.70;100927.81;5012865;28;20042;-67
2021/10/20 06:20:17;;;;;;;9.67;2.87;;;;;;;1.39;60.41;100912.28;5013238;28;20064;-67
2021/10/20 06:22:43;;;;;;;4.23;2.80;;;;;;;1.41;60.52;100906.91;5012782;28;20412;-68
2021/10/20 06:25:11;;;;;;;6.40;3.57;;;;;;;1.44;60.28;100915.44;5013203;28;20935;-69
2021/10/20 06:27:37;;;;;;;7.73;3.80;;;;;;;1.45;60.19;100903.19;5012496;28;20292;-69
2021/10/20 06:30:04;;;;;;;6.47;2.70;;;;;;;1.51;60.04;100890.50;5013123;28;20755;-74
2021/10/20 06:32:29;;;;;;;7.67;2.73;;;;;;;1.65;59.89;100902.69;4995893;28;20315;-68
2021/10/20 06:34:55;;;;;;;8.90;2.43;;;;;;;1.62;59.36;100902.88;5013716;28;20257;-69
2021/10/20 06:37:20;;;;;;;6.03;2.70;;;;;;;1.57;60.10;100883.16;5013251;28;20061;-68
2021/10/20 06:39:45;;;;;;;7.30;2.23;;;;;;;1.67;59.46;100879.78;5013121;28;20117;-68
2021/10/20 06:42:12;;;;;;;6.37;2.83;;;;;;;1.73;59.55;100881.16;5013164;28;20037;-71
2021/10/20 06:44:37;;;;;;;5.90;2.33;;;;;;;1.52;59.50;100830.97;5012857;28;20602;-69
2021/10/20 06:47:03;;;;;;;4.50;2.17;;;;;;;1.64;59.27;100850.28;5013191;28;20370;-75
2021/10/20 06:49:28;;;;;;;4.23;2.60;;;;;;;1.66;59.80;100845.78;5011989;28;20416;-68
2021/10/20 06:51:54;;;;;;;5.47;2.53;;;;;;;1.65;60.06;100844.09;5012819;28;20046;-70
2021/10/20 06:54:20;;;;;;;6.60;2.27;;;;;;;1.75;59.77;100840.75;5012471;28;20048;-70
2021/10/20 06:56:47;;;;;;;4.47;2.10;;;;;;;1.69;59.81;100825.41;5012789;28;20041;-66
2021/10/20 06:59:15;;;;;;;3.63;2.70;;;;;;;1.74;59.60;100818.06;5013002;28;20050;-68
2021/10/20 07:01:41;;;;;;;3.28;2.35;;;;;;;1.83;59.38;100811.34;5012811;28;20269;-67
2021/10/20 07:04:08;;;;;;;6.60;2.40;;;;;;;1.92;58.80;100815.94;5013222;28;20114;-68
2021/10/20 07:06:33;;;;;;;8.10;2.00;;;;;;;1.85;58.93;100794.53;5013010;28;20268;-67
2021/10/20 07:09:01;;;;;;;5.70;1.97;;;;;;;1.75;59.21;100766.41;5012815;28;20256;-66
2021/10/20 07:11:30;;;;;;;4.38;2.28;;;;;;;1.90;58.29;100791.59;5012900;28;20083;-65
2021/10/20 07:13:57;;;;;;;3.73;1.90;;;;;;;1.95;59.12;100778.97;5008932;28;20045;-62
2021/10/20 07:16:22;;;;;;;3.93;2.20;;;;;;;1.88;59.27;100746.19;5011881;28;20272;-64
2021/10/20 07:18:48;;;;;;;3.00;2.03;;;;;;;2.00;58.86;100744.50;5012074;28;20293;-64
2021/10/20 07:21:13;;;;;;;9.93;2.30;;;;;;;1.96;58.76;100743.03;5012000;28;20091;-67
2021/10/20 07:23:39;;;;;;;3.90;1.43;;;;;;;1.99;58.82;100743.66;5010609;28;20069;-68
2021/10/20 07:26:04;;;;;;;7.40;2.47;;;;;;;2.01;58.83;100733.88;5012734;28;20045;-67
2021/10/20 07:28:30;;;;;;;3.10;1.73;;;;;;;2.10;58.48;100725.38;5010728;28;20046;-64
2021/10/20 07:30:55;;;;;;;4.33;1.67;;;;;;;2.06;58.72;100700.25;5012714;28;20038;-62
2021/10/20 07:33:21;;;;;;;3.47;1.63;;;;;;;2.13;58.47;100693.63;5012056;28;20128;-63
2021/10/20 07:35:46;;;;;;;3.93;1.90;;;;;;;2.22;58.25;100704.41;5012060;28;20034;-65
2021/10/20 07:38:12;;;;;;;2.03;1.70;;;;;;;2.18;58.22;100690.66;5010259;28;20038;-70
2021/10/20 07:40:37;;;;;;;5.67;2.00;;;;;;;2.09;57.97;100676.41;5011824;28;20112;-68
2021/10/20 07:43:03;;;;;;;3.63;2.07;;;;;;;1.98;58.46;100644.78;5010887;28;20547;-63
2021/10/20 07:45:28;;;;;;;3.53;2.13;;;;;;;2.15;58.54;100647.06;5010561;28;20041;-72
2021/10/20 07:47:54;;;;;;;8.07;2.47;;;;;;;2.22;57.99;100657.09;5011887;28;20065;-68
2021/10/20 07:50:21;;;;;;;5.70;1.93;;;;;;;2.11;58.46;100627.22;5011950;28;20095;-69
2021/10/20 07:52:48;;;;;;;5.93;2.40;;;;;;;1.99;58.96;100612.31;5011703;28;20042;-69
2021/10/20 07:55:16;;;;;;;6.73;2.30;;;;;;;2.05;58.03;100601.41;5012354;28;20288;-67
2021/10/20 07:57:45;;;;;;;5.60;2.43;;;;;;;2.04;58.56;100598.88;5011847;28;20816;-66
2021/10/20 08:00:11;;;;;;;5.90;2.30;;;;;;;2.18;59.06;100623.19;5010580;28;20644;-65
2021/10/20 08:02:36;;;;;;;6.10;2.67;;;;;;;2.15;58.61;100618.16;5011370;28;20183;-68
2021/10/20 08:05:03;;;;;;;4.20;2.30;;;;;;;1.93;58.78;100570.75;5012327;28;20755;-61
2021/10/20 08:07:28;;;;;;;5.27;2.30;;;;;;;2.21;59.43;100598.47;5012022;28;20405;-74
2021/10/20 08:09:54;;;;;;;5.77;3.30;;;;;;;2.27;59.82;100584.03;5011999;28;20273;-69
2021/10/20 08:12:19;;;;;;;13.47;3.00;;;;;;;2.08;60.19;100539.91;5010821;28;20038;-72
2021/10/20 08:14:46;;;;;;;10.30;2.87;;;;;;;2.23;60.85;100543.16;5010390;28;20511;-63
2021/10/20 08:17:11;;;;;;;3.27;2.47;;;;;;;2.15;61.76;100518.31;5011631;28;20030;-74
2021/10/20 08:19:37;;;;;;;7.57;2.30;;;;;;;2.12;63.47;100526.44;5010260;28;20343;-68
2021/10/20 08:22:02;;;;;;;5.77;2.17;;;;;;;1.76;65.51;100474.00;5011194;28;20069;-65
2021/10/20 08:24:28;;;;;;;6.03;2.00;;;;;;;1.81;66.72;100498.13;5011490;28;20057;-66
2021/10/20 08:26:54;;;;;;;4.30;1.80;;;;;;;1.52;68.07;100477.47;5012173;28;20053;-68
2021/10/20 08:29:20;;;;;;;5.63;2.53;;;;;;;1.41;68.74;100469.53;4994459;28;20049;-71
2021/10/20 08:31:45;;;;;;;7.30;3.90;;;;;;;1.44;69.21;100468.47;5012397;28;20448;-63
2021/10/20 08:34:11;;;;;;;8.33;3.57;;;;;;;1.43;69.43;100445.81;5011621;28;20037;-72
2021/10/20 08:36:39;;;;;;;4.80;3.30;;;;;;;1.41;69.88;100426.72;5012092;28;20485;-70
2021/10/20 08:39:05;;;;;;;5.45;2.97;;;;;;;1.36;70.35;100395.56;5012441;28;20077;-69
2021/10/20 08:41:31;;;;;;;5.67;3.10;;;;;;;1.37;70.67;100378.88;5011873;28;20080;-74
2021/10/20 08:43:58;;;;;;;6.97;3.10;;;;;;;1.39;71.47;100353.34;5011667;28;20129;-73
2021/10/20 08:46:25;;;;;;;4.43;3.07;;;;;;;1.37;71.04;100334.25;5012013;28;20053;-68
2021/10/20 08:48:54;;;;;;;7.20;2.90;;;;;;;1.34;71.63;100331.03;5011452;28;20272;-66
2021/10/20 08:51:22;;;;;;;8.13;3.28;;;;;;;1.32;71.85;100318.03;5012087;28;20275;-73
2021/10/20 08:53:48;;;;;;;7.18;3.63;;;;;;;1.33;72.90;100309.22;5015246;28;20073;-71
2021/10/20 08:56:16;;;;;;;4.23;3.40;;;;;;;1.30;73.41;100298.94;5013632;28;20489;-70
2021/10/20 08:58:43;;;;;;;4.82;3.10;;;;;;;1.35;72.93;100294.19;5013653;28;20307;-67
2021/10/20 09:01:08;;;;;;;3.80;2.90;;;;;;;1.37;73.58;100288.81;5014682;28;20045;-72
2021/10/20 09:03:34;;;;;;;6.57;3.33;;;;;;;1.33;73.65;100275.09;5014534;28;20295;-70
2021/10/20 09:05:59;;;;;;;5.10;3.47;;;;;;;1.41;72.97;100269.28;5014466;28;20042;-69
2021/10/20 09:08:25;;;;;;;5.03;3.80;;;;;;;1.34;74.43;100247.09;5014895;28;20461;-70
2021/10/20 09:10:50;;;;;;;5.47;3.63;;;;;;;1.32;73.95;100260.31;5014299;28;20037;-69
2021/10/20 09:13:16;;;;;;;7.17;4.33;;;;;;;1.36;74.61;100272.25;5014674;28;20117;-71
2021/10/20 09:15:42;;;;;;;10.17;3.90;;;;;;;1.39;74.83;100264.16;5014275;28;20049;-70
2021/10/20 09:18:14;;;;;;;9.03;4.43;;;;;;;1.30;74.69;100216.78;5012795;28;20136;-69
2021/10/20 09:20:45;;;;;;;11.27;3.83;;;;;;;1.36;74.70;100208.44;5014935;28;20152;-68
2021/10/20 09:23:20;;;;;;;8.83;3.90;;;;;;;1.39;75.42;100219.53;5015032;28;20787;-68
2021/10/20 09:25:48;;;;;;;6.80;3.47;;;;;;;1.42;75.52;100211.44;5014238;28;20318;-69
2021/10/20 09:28:33;;;;;;;5.35;2.97;;;;;;;1.36;75.74;100188.28;5014645;28;20814;-64
2021/10/20 09:31:01;;;;;;;7.20;3.47;;;;;;;1.36;76.75;100182.22;5012681;28;20401;-68
2021/10/20 09:33:28;;;;;;;7.75;2.92;;;;;;;1.34;76.70;100148.22;5014107;28;20356;-66
2021/10/20 09:35:53;;;;;;;9.33;3.70;;;;;;;1.35;75.99;100142.03;5014553;28;20052;-67
2021/10/20 09:38:20;;;;;;;7.50;4.33;;;;;;;1.29;77.24;100149.53;5014552;28;20300;-68
2021/10/20 09:40:47;;;;;;;9.47;3.37;;;;;;;1.23;77.36;100127.25;5014435;28;20042;-65
2021/10/20 09:43:18;;;;;;;13.23;8.60;;;;;;;1.29;77.61;100129.38;5013907;28;20273;-71
2021/10/20 09:45:47;;;;;;;4.53;3.57;;;;;;;1.28;76.86;100111.16;5012595;28;20272;-67
2021/10/20 09:48:20;;;;;;;4.70;3.33;;;;;;;1.22;77.71;100104.59;5013805;28;20273;-67
2021/10/20 09:51:06;;;;;;;4.53;4.00;;;;;;;1.25;78.46;100122.72;5013892;28;20029;-70
2021/10/20 09:53:35;;;;;;;6.97;3.70;;;;;;;1.17;78.79;100122.47;5014659;28;20314;-69
2021/10/20 09:56:34;;;;;;;4.97;3.90;;;;;;;1.23;78.58;100120.22;5012938;28;20632;-64
2021/10/20 09:59:00;;;;;;;7.07;3.53;;;;;;;1.23;79.80;100114.13;5011512;28;20304;-61
2021/10/20 10:01:28;;;;;;;5.93;4.40;;;;;;;1.24;79.14;100100.91;5013739;28;20276;-64
2021/10/20 10:03:57;;;;;;;11.05;4.65;;;;;;;1.22;80.29;100092.31;5012187;28;20151;-69
2021/10/20 10:06:23;;;;;;;5.13;2.85;;;;;;;0.83;79.83;100035.91;5013214;28;20064;-69
2021/10/20 10:08:49;;;;;;;5.37;3.20;;;;;;;1.21;79.79;100097.69;5013467;28;20520;-64
2021/10/20 10:11:15;;;;;;;4.23;3.23;;;;;;;1.11;80.67;100060.00;5012270;28;20033;-69
2021/10/20 10:13:51;;;;;;;6.17;2.93;;;;;;;1.16;79.66;100050.84;5013343;28;20279;-67
2021/10/20 10:16:27;;;;;;;5.67;4.50;;;;;;;1.17;79.84;100049.88;5012432;28;20057;-66
2021/10/20 10:19:02;;;;;;;7.70;4.67;;;;;;;1.18;80.51;100051.53;5012760;28;20389;-71
2021/10/20 10:21:40;;;;;;;6.47;3.20;;;;;;;1.20;80.57;100044.38;5013536;28;20296;-71
2021/10/20 10:24:13;;;;;;;10.52;4.03;;;;;;;1.26;80.63;100035.19;5013395;28;20268;-66
2021/10/20 10:27:04;;;;;;;6.10;3.40;;;;;;;1.29;80.25;100018.38;5013085;28;20065;-67
2021/10/20 10:29:30;;;;;;;5.40;3.30;;;;;;;1.23;79.78;100019.72;5013161;28;20421;-65
2021/10/20 10:32:02;;;;;;;4.97;3.17;;;;;;;1.18;80.54;100003.50;5013235;28;20787;-66
2021/10/20 10:34:42;;;;;;;8.40;3.47;;;;;;;1.14;81.05;99995.00;5013034;28;20344;-68
2021/10/20 10:37:08;;;;;;;5.03;3.53;;;;;;;1.04;81.25;99967.03;5012299;28;20372;-65
2021/10/20 10:39:33;;;;;;;5.30;3.53;;;;;;;1.06;82.17;99967.75;5012510;28;20676;-69
2021/10/20 10:42:19;;;;;;;4.77;3.17;;;;;;;1.08;82.17;99963.19;5012830;28;20091;-64
2021/10/20 10:44:49;;;;;;;5.50;3.70;;;;;;;1.12;81.93;99944.47;5012368;28;20037;-69
2021/10/20 10:47:26;;;;;;;6.00;4.13;;;;;;;1.12;82.53;99918.25;5011260;28;20264;-66
2021/10/20 10:49:56;;;;;;;5.93;3.83;;;;;;;1.13;82.85;99914.69;5012494;28;20269;-66
2021/10/20 10:52:31;;;;;;;7.43;3.60;;;;;;;1.13;82.89;99885.00;5012119;28;20265;-65
2021/10/20 10:55:20;;;;;;;6.20;3.40;;;;;;;1.12;82.69;99876.28;5012839;28;20319;-65
2021/10/20 10:58:03;;;;;;;21.60;5.07;;;;;;;1.16;83.76;99861.16;5012504;28;20300;-66
2021/10/20 11:00:45;;;;;;;7.50;4.40;;;;;;;1.17;82.65;99863.66;5012108;28;20794;-63
2021/10/20 11:03:21;;;;;;;6.90;4.77;;;;;;;1.16;82.61;99848.06;5010969;28;20379;-62
2021/10/20 11:05:53;;;;;;;8.13;4.00;;;;;;;1.05;82.78;99834.97;5012188;28;20293;-67
2021/10/20 11:08:19;;;;;;;7.93;4.67;;;;;;;1.06;82.81;99849.75;5012232;28;20288;-69
2021/10/20 11:10:44;;;;;;;6.33;4.53;;;;;;;1.02;83.18;99829.97;5012367;28;20272;-68
2021/10/20 11:13:12;;;;;;;6.40;4.27;;;;;;;1.07;83.44;99826.03;5009728;28;20483;-63
2021/10/20 11:15:38;;;;;;;8.37;4.63;;;;;;;1.00;84.28;99808.28;5011848;28;20052;-63
2021/10/20 11:18:05;;;;;;;8.27;4.60;;;;;;;0.96;83.48;99792.00;5010759;28;20300;-64
2021/10/20 11:20:34;;;;;;;7.63;5.10;;;;;;;1.08;83.59;99822.44;5011789;28;20053;-63
2021/10/20 11:23:06;;;;;;;9.20;4.63;;;;;;;0.96;83.44;99812.13;5011468;28;20315;-62
2021/10/20 11:25:32;;;;;;;6.57;4.40;;;;;;;1.10;83.46;99819.69;5009402;28;20279;-65
2021/10/20 11:28:00;;;;;;;10.60;5.83;;;;;;;1.09;83.58;99812.78;5012930;28;20264;-74
2021/10/20 11:30:31;;;;;;;10.97;5.73;;;;;;;1.06;83.96;99797.31;5011281;28;20291;-62
2021/10/20 11:32:58;;;;;;;7.67;4.53;;;;;;;1.08;84.62;99774.41;5012687;28;20296;-65